Time;durP1;ratioP1;P1;durP2;ratioP2;P2;SDS_P1;SDS_P2;PMS_P1;PMS_P2;Temp;Humidity;BMP_temperature;BMP_pressure;BME280_temperature;BME280_humidity;BME280_pressure;Samples;Min_cycle;Max_cycle;Signal;HPM_P1;HPM_P2
2021/04/10 00:00:14;;;;;;;15.60;9.40;;;;;;;4.26;65.60;100349.03;5022372;28;20528;-69
2021/04/10 00:02:39;;;;;;;14.50;10.00;;;;;;;4.21;66.27;100339.38;5021776;28;20026;-69
2021/04/10 00:05:07;;;;;;;13.57;9.80;;;;;;;4.07;66.75;100334.81;5025021;28;20444;-69
2021/04/10 00:07:33;;;;;;;16.30;10.75;;;;;;;3.87;67.47;100341.41;5025237;28;20037;-69
2021/04/10 00:09:58;;;;;;;14.88;10.10;;;;;;;3.76;67.08;100333.38;5023057;28;20389;-69
2021/04/10 00:12:23;;;;;;;15.60;9.48;;;;;;;3.70;68.59;100338.50;5021617;28;20110;-69
2021/04/10 00:14:49;;;;;;;14.32;10.18;;;;;;;3.62;68.20;100335.75;5023212;28;20069;-70
2021/04/10 00:17:14;;;;;;;16.17;10.45;;;;;;;3.56;68.32;100329.53;5025270;28;20038;-69
2021/04/10 00:19:39;;;;;;;16.30;11.07;;;;;;;3.44;67.96;100336.28;5025196;28;20120;-70
2021/04/10 00:22:05;;;;;;;14.05;9.60;;;;;;;3.33;69.11;100344.72;5021516;28;20077;-69
2021/04/10 00:24:30;;;;;;;14.80;8.75;;;;;;;3.16;69.34;100349.59;5021674;28;20034;-69
2021/04/10 00:26:55;;;;;;;15.65;9.63;;;;;;;3.10;70.18;100346.88;5023935;28;20125;-69
2021/04/10 00:29:21;;;;;;;16.40;10.35;;;;;;;3.08;70.34;100350.31;5025099;28;20171;-69
2021/04/10 00:31:47;;;;;;;14.80;10.23;;;;;;;3.09;70.30;100348.56;5023606;28;20045;-71
2021/04/10 00:34:12;;;;;;;16.83;10.18;;;;;;;3.14;70.10;100351.28;5021483;28;20038;-70
2021/04/10 00:36:37;;;;;;;17.55;10.88;;;;;;;3.17;70.11;100352.25;5021432;28;20034;-70
2021/04/10 00:39:04;;;;;;;14.70;10.60;;;;;;;3.20;69.51;100347.09;5024711;28;20033;-70
2021/04/10 00:41:29;;;;;;;17.80;11.35;;;;;;;3.24;69.75;100341.09;5023599;28;20405;-70
2021/04/10 00:43:55;;;;;;;17.17;11.77;;;;;;;3.27;69.38;100342.88;5021111;28;20041;-70
2021/04/10 00:46:20;;;;;;;14.77;10.70;;;;;;;3.26;70.09;100336.78;5021227;28;20037;-70
2021/04/10 00:48:45;;;;;;;18.02;12.18;;;;;;;3.27;70.08;100335.03;5022103;28;20080;-70
2021/04/10 00:51:11;;;;;;;16.45;11.00;;;;;;;3.32;69.28;100336.03;5024513;28;20040;-70
2021/04/10 00:53:37;;;;;;;17.17;11.18;;;;;;;3.37;69.51;100339.59;5024300;28;20045;-70
2021/04/10 00:56:09;;;;;;;16.23;11.25;;;;;;;3.43;69.79;100334.53;5020008;28;20121;-69
2021/04/10 00:58:35;;;;;;;17.52;10.18;;;;;;;3.50;69.44;100328.56;5021230;28;20473;-70
2021/04/10 01:01:02;;;;;;;18.00;11.05;;;;;;;3.56;69.19;100325.19;5006420;28;20061;-70
2021/04/10 01:03:29;;;;;;;15.10;10.07;;;;;;;3.61;69.06;100317.44;5024089;28;20079;-70
2021/04/10 01:05:54;;;;;;;16.20;11.48;;;;;;;3.66;68.98;100326.25;5022253;28;20057;-70
2021/04/10 01:08:19;;;;;;;15.38;10.77;;;;;;;3.63;68.66;100315.75;5020693;28;20447;-70
2021/04/10 01:10:45;;;;;;;17.67;10.80;;;;;;;3.63;68.91;100315.75;5021690;28;20034;-70
2021/04/10 01:13:36;;;;;;;18.40;12.32;;;;;;;3.60;69.63;100308.75;5022544;28;20413;-69
2021/04/10 01:16:14;;;;;;;20.52;13.10;;;;;;;3.63;69.35;100302.69;5019058;28;20038;-70
2021/04/10 01:18:49;;;;;;;17.30;11.20;;;;;;;3.70;69.13;100301.97;5003118;28;20037;-70
2021/04/10 01:21:36;;;;;;;18.65;11.07;;;;;;;3.73;68.89;100284.63;5018216;28;20076;-70
2021/04/10 01:24:22;;;;;;;15.25;10.55;;;;;;;3.79;68.76;100293.41;5020970;28;20041;-70
2021/04/10 01:27:06;;;;;;;15.52;10.25;;;;;;;3.87;68.31;100289.19;5021575;28;20421;-70
2021/04/10 01:29:52;;;;;;;15.40;10.48;;;;;;;3.97;68.05;100295.47;5023934;28;20029;-69
2021/04/10 01:32:19;;;;;;;15.43;10.10;;;;;;;4.09;68.11;100285.22;5015403;28;20034;-69
2021/04/10 01:34:54;;;;;;;18.17;11.25;;;;;;;4.15;68.25;100290.53;5014912;28;20490;-70
2021/04/10 01:37:25;;;;;;;15.50;11.57;;;;;;;4.13;67.89;100285.28;5023726;28;20033;-70
2021/04/10 01:39:51;;;;;;;20.00;11.60;;;;;;;4.11;68.40;100293.94;5020870;28;20033;-70
2021/04/10 01:42:22;;;;;;;15.48;10.15;;;;;;;4.04;68.15;100290.38;5018856;28;20528;-70
2021/04/10 01:44:54;;;;;;;14.43;9.52;;;;;;;4.13;67.97;100287.00;5020328;28;20037;-70
2021/04/10 01:47:20;;;;;;;15.93;10.75;;;;;;;4.03;68.27;100290.31;5022236;28;20052;-70
2021/04/10 01:49:50;;;;;;;18.05;11.07;;;;;;;3.95;68.45;100280.63;5022208;28;20033;-72
2021/04/10 01:52:19;;;;;;;17.08;10.98;;;;;;;3.87;68.75;100290.06;5018513;28;20064;-70
2021/04/10 01:54:45;;;;;;;19.95;10.57;;;;;;;3.90;68.17;100278.78;5030723;28;20510;-70
2021/04/10 01:57:12;;;;;;;16.88;11.75;;;;;;;3.97;68.75;100279.78;5022125;28;20038;-70
2021/04/10 01:59:43;;;;;;;21.20;13.20;;;;;;;4.09;68.73;100280.88;5023457;28;20098;-70
2021/04/10 02:02:14;;;;;;;18.17;13.27;;;;;;;4.22;68.39;100274.13;5011297;28;20058;-70
2021/04/10 02:04:46;;;;;;;18.75;12.98;;;;;;;4.25;68.64;100276.78;5020527;28;20109;-70
2021/04/10 02:07:14;;;;;;;20.50;13.73;;;;;;;4.29;68.77;100262.00;5021803;28;20033;-69
2021/04/10 02:09:45;;;;;;;21.55;14.10;;;;;;;4.45;68.72;100252.66;5022842;28;20404;-71
2021/04/10 02:12:32;;;;;;;20.98;13.98;;;;;;;4.54;68.42;100244.97;5019121;28;20053;-70
2021/04/10 02:15:09;;;;;;;18.88;12.55;;;;;;;4.68;68.11;100246.00;4998944;28;20080;-70
2021/04/10 02:17:35;;;;;;;19.38;12.38;;;;;;;4.89;67.98;100232.31;5012084;28;20544;-71
2021/04/10 02:20:14;;;;;;;18.35;12.02;;;;;;;5.11;67.33;100238.72;5010384;28;20506;-70
2021/04/10 02:22:49;;;;;;;15.98;11.15;;;;;;;5.28;66.53;100231.03;5019490;28;20053;-71
2021/04/10 02:25:22;;;;;;;16.15;11.95;;;;;;;5.46;66.13;100238.19;5006129;28;20061;-71
2021/04/10 02:27:48;;;;;;;16.13;10.00;;;;;;;5.56;66.01;100240.03;5020460;28;20528;-71
2021/04/10 02:30:15;;;;;;;15.88;10.70;;;;;;;5.64;65.88;100248.84;5001956;28;20083;-71
2021/04/10 02:32:50;;;;;;;14.70;10.50;;;;;;;5.69;65.75;100241.03;5001983;28;20529;-71
2021/04/10 02:35:25;;;;;;;13.27;9.27;;;;;;;5.75;65.60;100227.13;5023066;28;20040;-71
2021/04/10 02:37:53;;;;;;;17.23;10.82;;;;;;;5.85;65.19;100226.31;5020321;28;20091;-71
2021/04/10 02:40:20;;;;;;;14.48;10.38;;;;;;;5.93;65.11;100219.41;5019497;28;20117;-71
2021/04/10 02:42:47;;;;;;;14.40;10.35;;;;;;;5.98;64.91;100225.59;5002698;28;20064;-71
2021/04/10 02:45:26;;;;;;;13.05;9.90;;;;;;;6.01;64.50;100222.13;5022906;28;20061;-71
2021/04/10 02:48:01;;;;;;;14.40;10.55;;;;;;;6.03;64.34;100220.38;5020608;28;20663;-71
2021/04/10 02:50:29;;;;;;;15.10;10.68;;;;;;;6.05;64.79;100214.31;5001887;28;20065;-71
2021/04/10 02:52:57;;;;;;;14.13;9.80;;;;;;;6.04;64.27;100220.38;5003644;28;20049;-71
2021/04/10 02:55:35;;;;;;;15.15;10.25;;;;;;;6.05;64.34;100224.78;5005469;28;20037;-71
2021/04/10 02:58:04;;;;;;;15.52;11.15;;;;;;;6.01;64.44;100223.00;5018415;28;20584;-71
2021/04/10 03:00:30;;;;;;;12.05;9.40;;;;;;;5.98;64.33;100233.44;5001617;28;20029;-70
2021/04/10 03:02:57;;;;;;;15.68;10.05;;;;;;;6.02;64.22;100226.47;5021174;28;20439;-71
2021/04/10 03:05:23;;;;;;;13.95;9.30;;;;;;;6.02;64.55;100209.00;5022676;28;20078;-71
2021/04/10 03:07:52;;;;;;;14.05;9.93;;;;;;;6.13;64.24;100222.19;5064117;22;22051;-71
2021/04/10 03:10:23;;;;;;;14.05;10.18;;;;;;;6.19;64.57;100226.63;5057904;28;20473;-71
2021/04/10 03:12:53;;;;;;;13.68;10.68;;;;;;;6.22;64.45;100231.88;5034261;28;20128;-71
2021/04/10 03:15:20;;;;;;;16.42;10.27;;;;;;;6.29;63.91;100228.44;5037566;28;20030;-71
2021/04/10 03:17:49;;;;;;;15.85;11.30;;;;;;;6.35;63.49;100231.09;5030594;28;20120;-71
2021/04/10 03:20:16;;;;;;;15.45;10.85;;;;;;;6.30;63.26;100232.78;5045988;28;20450;-71
2021/04/10 03:22:45;;;;;;;13.77;9.30;;;;;;;6.28;64.22;100247.63;5037355;28;20163;-71
2021/04/10 03:25:13;;;;;;;13.32;9.95;;;;;;;6.21;63.73;100261.53;5037689;28;20087;-71
2021/04/10 03:27:41;;;;;;;14.40;10.88;;;;;;;6.22;63.19;100258.06;5029183;28;20035;-71
2021/04/10 03:30:08;;;;;;;17.20;9.90;;;;;;;6.33;62.60;100248.53;5030500;28;20482;-71
2021/04/10 03:32:42;;;;;;;13.23;9.52;;;;;;;6.34;62.89;100251.19;5028717;28;20038;-71
2021/04/10 03:35:09;;;;;;;16.50;9.52;;;;;;;6.34;62.85;100248.56;5014291;28;20040;-71
2021/04/10 03:37:35;;;;;;;11.55;9.15;;;;;;;6.38;63.18;100251.19;5022461;28;20037;-71
2021/04/10 03:40:02;;;;;;;14.27;9.63;;;;;;;6.38;62.83;100245.94;5039744;28;20033;-71
2021/04/10 03:42:43;;;;;;;13.82;9.70;;;;;;;6.27;62.91;100267.72;5033811;28;20037;-71
2021/04/10 03:45:14;;;;;;;14.35;10.00;;;;;;;6.31;63.06;100260.75;5019911;28;20087;-71
2021/04/10 03:47:39;;;;;;;13.93;10.40;;;;;;;6.24;63.85;100265.09;5034063;28;20080;-71
2021/04/10 03:50:06;;;;;;;13.77;9.15;;;;;;;6.22;63.16;100266.81;5029536;28;20033;-71
2021/04/10 03:52:32;;;;;;;12.98;9.77;;;;;;;6.22;63.49;100268.56;5027798;28;20087;-71
2021/04/10 03:54:57;;;;;;;15.73;9.55;;;;;;;6.27;64.43;100274.72;5024355;28;20037;-71
2021/04/10 03:57:23;;;;;;;16.13;10.15;;;;;;;6.41;63.33;100275.66;5023138;28;20056;-71
2021/04/10 03:59:48;;;;;;;13.35;10.45;;;;;;;6.44;63.28;100275.69;5037462;28;20026;-71
2021/04/10 04:02:19;;;;;;;15.73;10.80;;;;;;;6.46;64.60;100281.81;5040638;28;20524;-71
2021/04/10 04:04:45;;;;;;;13.55;9.63;;;;;;;6.50;64.57;100283.63;5008139;28;20061;-71
2021/04/10 04:07:10;;;;;;;15.88;10.40;;;;;;;6.51;65.26;100274.88;5016896;28;20061;-71
2021/04/10 04:09:37;;;;;;;15.55;10.05;;;;;;;6.53;64.37;100270.50;5018019;28;20034;-71
2021/04/10 04:12:04;;;;;;;14.52;10.27;;;;;;;6.52;64.81;100267.88;5025781;28;20041;-71
2021/04/10 04:14:29;;;;;;;13.80;10.45;;;;;;;6.54;65.86;100267.00;5033467;28;20029;-71
2021/04/10 04:16:54;;;;;;;15.25;10.00;;;;;;;6.55;66.25;100258.31;5026760;28;20473;-71
2021/04/10 04:19:20;;;;;;;11.70;9.40;;;;;;;6.58;66.47;100262.69;5026376;28;20052;-70
2021/04/10 04:21:45;;;;;;;15.55;11.23;;;;;;;6.62;66.74;100253.06;5032990;28;20029;-71
2021/04/10 04:24:11;;;;;;;13.93;9.85;;;;;;;6.68;66.65;100247.84;5033426;28;20041;-71
2021/04/10 04:26:36;;;;;;;13.38;10.15;;;;;;;6.76;66.58;100246.19;5033430;28;20045;-70
2021/04/10 04:29:01;;;;;;;12.00;9.60;;;;;;;6.83;66.89;100241.81;5033173;28;20037;-71
2021/04/10 04:31:27;;;;;;;13.38;9.40;;;;;;;6.91;66.53;100245.34;5027713;28;20033;-71
2021/04/10 04:33:52;;;;;;;14.30;10.35;;;;;;;6.91;68.42;100246.22;5024405;28;20037;-70
2021/04/10 04:36:18;;;;;;;14.20;9.70;;;;;;;6.86;67.43;100247.06;5033088;28;20048;-71
2021/04/10 04:38:43;;;;;;;14.48;10.48;;;;;;;6.73;67.45;100246.13;5033072;28;20040;-71
2021/04/10 04:41:08;;;;;;;12.95;9.85;;;;;;;6.63;68.28;100244.34;5033083;28;20404;-71
2021/04/10 04:43:34;;;;;;;14.15;9.70;;;;;;;6.61;69.05;100257.44;5031510;28;20026;-71
2021/04/10 04:45:59;;;;;;;14.98;10.07;;;;;;;6.64;68.62;100256.59;5032983;28;20087;-71
2021/04/10 04:48:24;;;;;;;14.32;10.25;;;;;;;6.62;69.05;100260.94;5032940;28;20037;-71
2021/04/10 04:50:50;;;;;;;12.85;9.75;;;;;;;6.61;69.50;100256.59;5028441;28;20080;-71
2021/04/10 04:53:15;;;;;;;14.50;10.82;;;;;;;6.51;72.10;100263.50;5025462;28;20509;-71
2021/04/10 04:55:41;;;;;;;15.30;11.35;;;;;;;6.49;71.23;100265.22;5032741;28;20037;-71
2021/04/10 04:58:06;;;;;;;13.73;10.18;;;;;;;6.64;70.08;100270.56;5020255;28;20040;-72
2021/04/10 05:00:32;;;;;;;13.43;10.50;;;;;;;6.78;70.30;100286.38;5027636;28;20041;-71
2021/04/10 05:02:57;;;;;;;13.25;10.07;;;;;;;6.75;70.17;100302.09;5015163;28;20041;-71
2021/04/10 05:05:22;;;;;;;12.70;9.50;;;;;;;6.73;70.20;100309.97;5020397;28;20053;-71
2021/04/10 05:07:48;;;;;;;16.17;10.52;;;;;;;6.72;70.58;100317.84;5029853;28;20045;-71
2021/04/10 05:10:13;;;;;;;16.73;11.02;;;;;;;6.75;70.49;100333.56;5032504;28;20045;-71
2021/04/10 05:12:39;;;;;;;14.98;11.18;;;;;;;6.69;70.93;100344.91;5020666;28;20124;-71
2021/04/10 05:15:05;;;;;;;16.95;13.27;;;;;;;6.56;71.23;100351.81;5017761;28;20057;-72
2021/04/10 05:17:31;;;;;;;14.38;10.57;;;;;;;6.59;71.07;100361.44;5017169;28;20679;-71
2021/04/10 05:19:56;;;;;;;15.65;12.48;;;;;;;6.54;71.35;100361.41;5023785;28;20034;-71
2021/04/10 05:22:21;;;;;;;14.82;12.18;;;;;;;6.55;71.41;100367.56;5023280;28;20033;-71
2021/04/10 05:24:46;;;;;;;15.57;12.40;;;;;;;6.52;72.46;100378.00;5014756;28;20030;-71
2021/04/10 05:27:12;;;;;;;15.98;11.25;;;;;;;6.53;72.11;100388.50;5023704;28;20053;-71
2021/04/10 05:29:37;;;;;;;15.85;12.68;;;;;;;6.49;72.67;100402.44;5028675;28;20045;-71
2021/04/10 05:32:03;;;;;;;17.15;11.35;;;;;;;6.49;73.03;100410.31;5031147;28;20507;-72
2021/04/10 05:34:28;;;;;;;16.90;12.07;;;;;;;6.41;73.42;100412.00;5040563;28;20041;-71
2021/04/10 05:36:53;;;;;;;18.77;13.45;;;;;;;6.37;73.39;100420.72;5024315;28;20042;-71
2021/04/10 05:39:19;;;;;;;15.32;11.27;;;;;;;6.33;73.24;100429.38;5019494;28;20052;-71
2021/04/10 05:41:44;;;;;;;19.02;13.10;;;;;;;6.30;74.88;100430.25;5020383;28;20029;-71
2021/04/10 05:44:09;;;;;;;16.38;13.00;;;;;;;6.29;74.08;100438.09;5031966;28;20171;-71
2021/04/10 05:46:35;;;;;;;13.35;10.63;;;;;;;6.29;74.24;100430.25;5031805;28;20061;-71
2021/04/10 05:49:00;;;;;;;15.40;11.52;;;;;;;6.31;74.33;100428.50;5031627;28;20041;-71
2021/04/10 05:51:26;;;;;;;17.38;12.00;;;;;;;6.31;73.68;100425.88;5031692;28;20037;-71
2021/04/10 05:53:51;;;;;;;17.08;13.02;;;;;;;6.23;74.13;100425.78;5031409;28;20073;-74
2021/04/10 05:56:16;;;;;;;15.25;11.45;;;;;;;6.28;74.58;100421.47;5031501;28;20048;-73
2021/04/10 05:58:42;;;;;;;15.35;11.10;;;;;;;6.30;74.67;100421.50;5038552;28;20074;-73
2021/04/10 06:01:07;;;;;;;16.70;12.57;;;;;;;6.19;75.75;100423.16;5031601;28;20033;-72
2021/04/10 06:03:33;;;;;;;20.67;13.70;;;;;;;6.20;75.48;100427.50;5030692;28;20047;-72
2021/04/10 06:05:58;;;;;;;21.23;13.70;;;;;;;6.21;75.58;100424.03;5038518;28;20037;-72
2021/04/10 06:08:24;;;;;;;21.10;14.88;;;;;;;6.17;76.24;100425.75;5031369;28;20459;-73
2021/04/10 06:10:49;;;;;;;18.83;13.65;;;;;;;6.19;76.75;100428.41;5031339;28;20035;-72
2021/04/10 06:13:15;;;;;;;17.42;13.13;;;;;;;6.19;77.08;100436.25;5037995;28;20041;-74
2021/04/10 06:15:40;;;;;;;15.77;12.30;;;;;;;6.20;76.82;100432.75;5038462;28;20108;-74
2021/04/10 06:18:07;;;;;;;19.23;12.55;;;;;;;6.12;77.42;100440.53;5031237;28;20049;-74
2021/04/10 06:20:32;;;;;;;17.33;13.57;;;;;;;6.06;77.53;100435.25;5031233;28;20087;-74
2021/04/10 06:22:58;;;;;;;18.52;13.25;;;;;;;6.09;77.55;100435.28;5030900;28;20041;-74
2021/04/10 06:25:23;;;;;;;19.88;13.18;;;;;;;6.15;77.35;100436.19;5038308;28;20124;-74
2021/04/10 06:27:49;;;;;;;18.98;13.82;;;;;;;6.16;77.11;100437.09;5031052;28;20116;-74
2021/04/10 06:30:15;;;;;;;17.73;11.68;;;;;;;6.11;76.71;100437.03;5031217;28;20489;-73
2021/04/10 06:32:40;;;;;;;16.90;12.40;;;;;;;6.10;76.40;100439.63;5030771;28;20030;-75
2021/04/10 06:35:06;;;;;;;17.67;12.55;;;;;;;6.09;76.86;100435.28;5031063;28;20940;-73
2021/04/10 06:37:32;;;;;;;17.02;12.95;;;;;;;6.19;76.77;100426.66;5031158;28;20378;-73
2021/04/10 06:39:57;;;;;;;18.02;13.60;;;;;;;6.31;76.79;100423.25;5030853;28;20048;-73
2021/04/10 06:42:23;;;;;;;20.13;12.88;;;;;;;6.32;77.28;100418.03;5030697;28;20034;-73
2021/04/10 06:44:48;;;;;;;18.35;12.07;;;;;;;6.47;76.48;100427.78;5030884;28;20444;-73
2021/04/10 06:47:21;;;;;;;14.07;11.27;;;;;;;6.53;76.13;100417.34;5031018;28;20030;-73
2021/04/10 06:49:48;;;;;;;14.68;10.70;;;;;;;6.66;76.17;100427.94;5030960;28;20044;-73
2021/04/10 06:52:16;;;;;;;14.10;10.23;;;;;;;6.75;75.41;100421.00;5030404;28;20053;-73
2021/04/10 06:54:45;;;;;;;14.07;10.25;;;;;;;6.80;74.78;100434.16;5030827;28;20440;-73
2021/04/10 06:57:14;;;;;;;13.43;10.57;;;;;;;6.85;74.37;100424.59;5030907;28;20033;-73
2021/04/10 07:00:03;;;;;;;16.98;12.43;;;;;;;6.91;74.88;100436.88;5014525;28;20058;-73
2021/04/10 07:02:30;;;;;;;17.50;11.98;;;;;;;7.05;74.46;100439.56;5030559;28;20120;-73
2021/04/10 07:04:56;;;;;;;13.43;10.82;;;;;;;7.06;74.28;100433.47;5037806;28;20033;-74
2021/04/10 07:07:23;;;;;;;17.20;11.32;;;;;;;7.15;74.65;100433.53;5030724;28;20026;-73
2021/04/10 07:09:49;;;;;;;15.35;11.70;;;;;;;7.30;74.83;100435.38;5030700;28;20508;-73
2021/04/10 07:12:14;;;;;;;16.27;11.90;;;;;;;7.42;73.48;100427.56;5030380;28;20038;-73
2021/04/10 07:14:40;;;;;;;17.33;12.27;;;;;;;7.42;74.65;100423.19;5032575;28;20033;-73
2021/04/10 07:17:05;;;;;;;18.27;12.60;;;;;;;7.51;74.47;100417.09;5004710;28;20060;-73
2021/04/10 07:19:30;;;;;;;15.65;13.07;;;;;;;7.58;75.32;100433.78;5034470;28;20083;-73
2021/04/10 07:22:11;;;;;;;19.10;13.32;;;;;;;7.76;73.78;100441.72;5034309;28;20033;-73
2021/04/10 07:24:50;;;;;;;18.95;13.48;;;;;;;7.86;73.74;100429.50;5034417;28;20059;-73
2021/04/10 07:27:20;;;;;;;18.10;11.65;;;;;;;7.97;74.06;100422.53;5007472;28;20045;-72
2021/04/10 07:29:47;;;;;;;16.38;13.57;;;;;;;8.04;73.50;100428.66;5034290;28;20115;-73
2021/04/10 07:32:31;;;;;;;19.27;14.52;;;;;;;8.08;73.35;100441.81;5033727;28;20382;-75
2021/04/10 07:34:57;;;;;;;20.50;13.80;;;;;;;7.95;73.88;100441.78;5033584;28;20033;-73
2021/04/10 07:37:55;;;;;;;18.10;14.80;;;;;;;7.97;74.54;100442.69;5024641;28;20052;-75
2021/04/10 07:40:25;;;;;;;18.00;12.90;;;;;;;8.20;73.96;100433.09;5012929;28;20428;-73
2021/04/10 07:42:51;;;;;;;18.20;13.85;;;;;;;8.36;73.01;100441.88;5033587;28;20485;-73
2021/04/10 07:45:32;;;;;;;18.50;12.80;;;;;;;8.49;73.09;100442.81;5034123;28;20029;-76
2021/04/10 07:48:07;;;;;;;17.27;12.25;;;;;;;8.68;72.93;100439.31;5049094;28;20045;-74
2021/04/10 07:50:34;;;;;;;19.60;13.13;;;;;;;8.88;71.89;100441.03;5034033;28;20045;-74
2021/04/10 07:53:28;;;;;;;16.40;12.68;;;;;;;9.05;71.11;100444.53;5033489;28;20033;-74
2021/04/10 07:55:55;;;;;;;17.98;13.00;;;;;;;9.11;70.71;100447.16;5049225;28;20175;-73
2021/04/10 07:58:32;;;;;;;16.45;12.77;;;;;;;9.28;70.96;100455.03;5033634;28;20030;-73
2021/04/10 08:01:08;;;;;;;18.85;12.90;;;;;;;9.31;70.38;100459.44;5033736;28;20033;-74
2021/04/10 08:03:35;;;;;;;16.13;12.90;;;;;;;9.27;70.67;100465.56;5023707;28;20037;-75
2021/04/10 08:06:06;;;;;;;16.25;12.35;;;;;;;9.39;70.49;100470.81;5033615;28;20033;-76
2021/04/10 08:08:52;;;;;;;16.40;12.40;;;;;;;9.52;70.12;100463.78;5040542;28;20044;-76
2021/04/10 08:11:31;;;;;;;16.13;12.77;;;;;;;9.49;69.63;100476.97;5020643;28;20037;-76
2021/04/10 08:13:58;;;;;;;19.20;14.00;;;;;;;9.58;69.31;100476.91;5028589;28;20033;-74
2021/04/10 08:16:25;;;;;;;17.55;12.25;;;;;;;9.70;69.60;100481.28;5015627;28;20409;-74
2021/04/10 08:18:55;;;;;;;20.77;13.70;;;;;;;9.64;68.53;100482.16;5037398;28;20033;-75
2021/04/10 08:21:31;;;;;;;16.55;11.93;;;;;;;9.68;69.58;100478.63;5032983;28;20042;-75
2021/04/10 08:23:56;;;;;;;14.57;11.18;;;;;;;9.88;69.14;100494.41;5032766;28;20065;-74
2021/04/10 08:26:22;;;;;;;20.33;12.57;;;;;;;9.96;69.03;100489.97;5032704;28;20041;-74
2021/04/10 08:28:48;;;;;;;16.48;12.35;;;;;;;10.00;68.84;100486.41;5023374;28;20116;-75
2021/04/10 08:31:13;;;;;;;14.55;11.45;;;;;;;10.23;68.52;100494.22;5032956;28;20084;-75
2021/04/10 08:33:39;;;;;;;16.30;12.95;;;;;;;10.47;67.97;100490.59;5032472;28;20081;-76
2021/04/10 08:36:07;;;;;;;17.83;13.23;;;;;;;10.66;67.23;100501.00;5013649;28;20036;-76
2021/04/10 08:38:34;;;;;;;14.38;12.02;;;;;;;10.81;66.79;100497.41;5016210;28;20046;-75
2021/04/10 08:41:05;;;;;;;15.82;12.73;;;;;;;10.90;67.04;100510.53;5025170;28;20489;-77
2021/04/10 08:43:34;;;;;;;14.60;12.23;;;;;;;10.91;66.14;100514.94;5032772;28;20029;-76
2021/04/10 08:46:00;;;;;;;15.32;12.05;;;;;;;10.64;66.29;100513.38;5028340;28;20119;-76
2021/04/10 08:48:28;;;;;;;14.30;11.50;;;;;;;10.57;66.55;100516.94;5033487;28;20520;-76
2021/04/10 08:50:56;;;;;;;15.63;12.93;;;;;;;10.60;66.57;100520.41;5020315;28;20113;-75
2021/04/10 08:53:24;;;;;;;15.45;12.18;;;;;;;10.69;66.68;100525.66;5035607;28;20072;-75
2021/04/10 08:55:51;;;;;;;14.10;11.73;;;;;;;10.79;66.18;100523.78;5030613;28;20035;-76
2021/04/10 08:58:24;;;;;;;14.40;11.68;;;;;;;10.82;66.01;100521.16;5022369;28;20090;-76
2021/04/10 09:01:15;;;;;;;14.60;12.15;;;;;;;10.96;65.40;100529.84;5035332;28;20025;-76
2021/04/10 09:03:47;;;;;;;13.70;10.90;;;;;;;11.27;64.94;100544.56;5021057;28;20406;-75
2021/04/10 09:06:17;;;;;;;13.07;10.85;;;;;;;11.48;63.95;100532.94;5028741;28;20128;-76
2021/04/10 09:08:43;;;;;;;14.95;12.40;;;;;;;11.68;63.80;100538.88;5028759;28;20174;-75
2021/04/10 09:11:17;;;;;;;15.10;11.50;;;;;;;11.72;63.62;100540.59;5032120;28;20101;-76
2021/04/10 09:13:45;;;;;;;15.73;11.48;;;;;;;11.74;63.17;100540.59;5031859;28;20120;-76
2021/04/10 09:16:24;;;;;;;14.90;11.70;;;;;;;11.49;62.32;100545.25;5032141;28;20037;-75
2021/04/10 09:19:03;;;;;;;16.00;11.82;;;;;;;11.31;63.84;100552.44;5031993;28;20079;-75
2021/04/10 09:21:43;;;;;;;12.60;10.55;;;;;;;11.40;63.90;100552.38;5026892;28;20083;-75
2021/04/10 09:24:43;;;;;;;16.50;11.90;;;;;;;11.26;64.90;100561.28;5027971;28;20038;-74
2021/04/10 09:27:22;;;;;;;14.30;11.65;;;;;;;11.30;63.67;100566.53;5039256;28;20044;-73
2021/04/10 09:30:02;;;;;;;12.98;10.02;;;;;;;11.22;64.46;100562.22;5031972;28;20037;-76
2021/04/10 09:32:40;;;;;;;15.00;12.20;;;;;;;11.06;64.49;100574.69;5031717;28;20168;-75
2021/04/10 09:35:10;;;;;;;16.13;12.95;;;;;;;10.69;64.56;100574.94;5026541;28;20033;-75
2021/04/10 09:37:35;;;;;;;15.88;13.25;;;;;;;10.63;64.56;100575.81;5030904;28;20033;-75
2021/04/10 09:40:06;;;;;;;17.70;13.65;;;;;;;10.48;65.66;100582.06;5030057;28;20029;-76
2021/04/10 09:42:34;;;;;;;15.20;12.18;;;;;;;10.61;65.04;100590.81;5047048;28;20034;-74
2021/04/10 09:45:17;;;;;;;18.17;14.30;;;;;;;10.57;65.65;100593.47;5031309;28;20469;-75
2021/04/10 09:47:51;;;;;;;13.02;11.18;;;;;;;10.57;66.07;100598.75;5031498;28;20045;-76
2021/04/10 09:50:18;;;;;;;14.77;11.55;;;;;;;10.56;65.67;100596.97;5032132;28;20033;-77
2021/04/10 09:52:44;;;;;;;14.32;12.25;;;;;;;10.65;65.64;100589.88;5046541;28;20029;-76
2021/04/10 09:55:10;;;;;;;16.58;13.25;;;;;;;10.69;65.09;100599.56;5046612;28;20036;-76
2021/04/10 09:57:36;;;;;;;15.63;12.93;;;;;;;10.48;65.73;100595.25;5031404;28;20377;-76
2021/04/10 10:00:03;;;;;;;15.48;13.15;;;;;;;10.49;65.11;100594.38;5030462;28;20048;-75
2021/04/10 10:02:29;;;;;;;15.93;12.25;;;;;;;10.46;66.36;100597.03;5030956;28;20429;-75
2021/04/10 10:04:55;;;;;;;16.33;13.43;;;;;;;10.60;65.63;100601.34;5031176;28;20041;-76
2021/04/10 10:07:22;;;;;;;17.23;12.73;;;;;;;10.76;65.54;100605.66;5046358;28;20044;-74
2021/04/10 10:10:07;;;;;;;16.52;13.18;;;;;;;10.83;66.03;100595.97;5029919;28;20148;-76
2021/04/10 10:12:33;;;;;;;14.93;12.43;;;;;;;11.16;64.22;100600.09;5046269;28;20045;-76
2021/04/10 10:14:58;;;;;;;13.30;11.90;;;;;;;11.26;63.18;100598.28;5031329;28;20041;-76
2021/04/10 10:17:28;;;;;;;14.82;12.02;;;;;;;11.35;63.01;100595.59;5045431;28;20040;-76
2021/04/10 10:20:10;;;;;;;15.85;12.27;;;;;;;11.48;62.42;100602.50;5029184;28;20069;-75
2021/04/10 10:22:35;;;;;;;;;;;;;;;11.71;63.31;100601.41;5031371;28;20065;-76
2021/04/10 10:25:03;;;;;;;15.88;11.85;;;;;;;12.06;62.45;100601.09;5031471;28;20006;-76
2021/04/10 10:27:36;;;;;;;15.60;12.85;;;;;;;12.38;61.27;100592.75;5042670;28;20040;-76
2021/04/10 10:30:11;;;;;;;16.10;12.68;;;;;;;12.56;60.16;100596.94;5030960;28;20045;-75
2021/04/10 10:32:37;;;;;;;13.63;11.98;;;;;;;12.93;59.87;100596.44;5030547;28;20120;-76
2021/04/10 10:35:09;;;;;;;16.60;13.52;;;;;;;12.88;59.09;100600.91;5037974;28;20136;-77
2021/04/10 10:37:35;;;;;;;14.18;12.68;;;;;;;12.88;58.72;100598.28;5037825;28;20036;-76
2021/04/10 10:40:00;;;;;;;14.50;12.32;;;;;;;13.12;59.59;100611.13;5030850;28;20536;-76
2021/04/10 10:42:26;;;;;;;14.65;12.65;;;;;;;13.36;57.44;100603.72;5032680;28;20408;-76
2021/04/10 10:44:51;;;;;;;17.23;13.23;;;;;;;12.89;58.36;100589.41;5020006;28;20117;-76
2021/04/10 10:47:17;;;;;;;14.18;11.73;;;;;;;12.84;58.91;100599.22;5026895;28;20099;-75
2021/04/10 10:49:52;;;;;;;14.07;11.20;;;;;;;13.21;56.69;100606.63;5021454;28;20033;-74
2021/04/10 10:52:18;;;;;;;14.75;11.52;;;;;;;13.07;57.48;100604.16;5031344;28;20042;-76
2021/04/10 10:54:46;;;;;;;15.82;12.30;;;;;;;12.97;58.69;100603.44;5025592;28;20047;-75
2021/04/10 10:57:13;;;;;;;13.27;11.63;;;;;;;12.67;58.86;100602.97;5029590;28;20044;-76
2021/04/10 10:59:39;;;;;;;14.18;11.10;;;;;;;12.52;59.35;100602.28;5041614;28;20120;-76
2021/04/10 11:02:05;;;;;;;13.05;10.68;;;;;;;12.24;59.34;100605.31;5029607;28;20027;-76
2021/04/10 11:04:34;;;;;;;14.18;11.73;;;;;;;11.90;59.28;100605.66;5025800;28;20037;-76
2021/04/10 11:07:01;;;;;;;14.57;11.70;;;;;;;11.78;59.48;100606.63;5034540;28;20041;-76
2021/04/10 11:09:30;;;;;;;16.35;11.80;;;;;;;11.49;60.55;100612.19;5033253;28;20497;-76
2021/04/10 11:12:06;;;;;;;13.65;10.80;;;;;;;11.33;61.19;100619.38;5034033;28;20033;-76
2021/04/10 11:14:34;;;;;;;14.50;12.75;;;;;;;11.15;62.43;100624.78;5042160;28;20040;-75
2021/04/10 11:17:03;;;;;;;16.52;13.13;;;;;;;11.09;62.70;100616.91;5023203;28;20113;-74
2021/04/10 11:19:30;;;;;;;16.42;11.50;;;;;;;11.18;62.32;100619.47;5034599;28;20501;-75
2021/04/10 11:21:57;;;;;;;16.42;12.52;;;;;;;11.06;62.50;100624.88;5034364;28;20044;-75
2021/04/10 11:24:34;;;;;;;15.55;13.30;;;;;;;10.94;63.40;100628.44;5034353;28;20037;-75